Log Lane Village, Colorado
Current Conditions -  °F | °C
As of 2:35 PM on Saturday 25 Oct 2014 (Local Time) from KFMM Reporting Station
Clear Clear  
Wind Chill: 80°   Ceiling: Unl
Heat Index: 80°   Visibility: 10mi
Dew Point: 25°   Wind: 8mph
Humidity: 13%   Direction: 100°E
Pressure: 30.09"   Gusts: NA
Location:  40.27°N, 103.83°W
Report Text: KFMM 252035Z AUTO 10007KT 10SM CLR 27/M04 A3009 RMK AO2 T02681039
Loading
Personal Weather Stations






























Interactive Weather Map
Tropical Storm Tracking
New forecast layout! Learn more

10-Day Weather Forecast

Advertisements
Track Severe Weather on mobile